sensor_id;sensor_type;location;lat;lon;timestamp;temperature;humidity
8172;DHT22;4127;47.908;10.850;2023-11-21T00:00:04;7.10;99.90
8172;DHT22;4127;47.908;10.850;2023-11-21T00:02:37;7.10;99.90
8172;DHT22;4127;47.908;10.850;2023-11-21T00:05:11;7.10;99.90
8172;DHT22;4127;47.908;10.850;2023-11-21T00:07:41;7.10;99.90
8172;DHT22;4127;47.908;10.850;2023-11-21T00:10:09;7.20;99.90
8172;DHT22;4127;47.908;10.850;2023-11-21T00:12:37;7.10;99.90
8172;DHT22;4127;47.908;10.850;2023-11-21T00:15:04;7.10;99.90
8172;DHT22;4127;47.908;10.850;2023-11-21T00:17:32;7.10;99.90
8172;DHT22;4127;47.908;10.850;2023-11-21T00:19:59;7.10;99.90
8172;DHT22;4127;47.908;10.850;2023-11-21T00:22:26;7.10;99.90
8172;DHT22;4127;47.908;10.850;2023-11-21T00:24:53;7.10;99.90
8172;DHT22;4127;47.908;10.850;2023-11-21T00:27:20;7.00;99.90
8172;DHT22;4127;47.908;10.850;2023-11-21T00:29:47;7.00;99.90
8172;DHT22;4127;47.908;10.850;2023-11-21T00:32:14;6.80;99.90
8172;DHT22;4127;47.908;10.850;2023-11-21T00:34:41;6.80;99.90
8172;DHT22;4127;47.908;10.850;2023-11-21T00:37:09;6.80;99.90
8172;DHT22;4127;47.908;10.850;2023-11-21T00:39:36;6.60;99.90
8172;DHT22;4127;47.908;10.850;2023-11-21T00:42:03;6.50;99.90
8172;DHT22;4127;47.908;10.850;2023-11-21T00:44:31;6.40;99.90
8172;DHT22;4127;47.908;10.850;2023-11-21T00:46:58;6.30;99.90
8172;DHT22;4127;47.908;10.850;2023-11-21T00:49:25;6.30;99.90
8172;DHT22;4127;47.908;10.850;2023-11-21T00:51:52;6.20;99.90
8172;DHT22;4127;47.908;10.850;2023-11-21T00:54:19;6.10;99.90
8172;DHT22;4127;47.908;10.850;2023-11-21T00:56:46;6.00;99.90
8172;DHT22;4127;47.908;10.850;2023-11-21T00:59:16;6.00;99.90
8172;DHT22;4127;47.908;10.850;2023-11-21T01:01:43;6.00;99.90
8172;DHT22;4127;47.908;10.850;2023-11-21T01:04:10;6.10;99.90
8172;DHT22;4127;47.908;10.850;2023-11-21T01:06:38;6.20;99.90
8172;DHT22;4127;47.908;10.850;2023-11-21T01:09:05;6.30;99.90
8172;DHT22;4127;47.908;10.850;2023-11-21T01:11:35;6.40;99.90
8172;DHT22;4127;47.908;10.850;2023-11-21T01:14:04;6.30;99.90
8172;DHT22;4127;47.908;10.850;2023-11-21T01:16:31;6.40;99.90
8172;DHT22;4127;47.908;10.850;2023-11-21T01:18:59;6.60;99.90
8172;DHT22;4127;47.908;10.850;2023-11-21T01:21:26;6.50;99.90
8172;DHT22;4127;47.908;10.850;2023-11-21T01:23:54;6.50;99.90
8172;DHT22;4127;47.908;10.850;2023-11-21T01:26:22;6.50;99.90
8172;DHT22;4127;47.908;10.850;2023-11-21T01:28:49;6.50;99.90
8172;DHT22;4127;47.908;10.850;2023-11-21T01:31:15;6.50;99.90
8172;DHT22;4127;47.908;10.850;2023-11-21T01:33:43;6.40;99.90
8172;DHT22;4127;47.908;10.850;2023-11-21T01:36:10;6.40;99.90
8172;DHT22;4127;47.908;10.850;2023-11-21T01:38:37;6.40;99.90
8172;DHT22;4127;47.908;10.850;2023-11-21T01:41:05;6.40;99.90
8172;DHT22;4127;47.908;10.850;2023-11-21T01:43:32;6.40;99.90
8172;DHT22;4127;47.908;10.850;2023-11-21T01:46:00;6.30;99.90
8172;DHT22;4127;47.908;10.850;2023-11-21T01:48:27;6.40;99.90
8172;DHT22;4127;47.908;10.850;2023-11-21T01:50:55;6.40;99.90
8172;DHT22;4127;47.908;10.850;2023-11-21T01:53:26;6.40;99.90
8172;DHT22;4127;47.908;10.850;2023-11-21T01:55:54;6.60;99.90
8172;DHT22;4127;47.908;10.850;2023-11-21T01:58:24;6.60;99.90
8172;DHT22;4127;47.908;10.850;2023-11-21T02:00:51;6.70;99.90
8172;DHT22;4127;47.908;10.850;2023-11-21T02:03:19;6.70;99.90
8172;DHT22;4127;47.908;10.850;2023-11-21T02:05:47;6.70;99.90
8172;DHT22;4127;47.908;10.850;2023-11-21T02:08:14;6.80;99.90
8172;DHT22;4127;47.908;10.850;2023-11-21T02:10:41;6.80;99.90
8172;DHT22;4127;47.908;10.850;2023-11-21T02:13:08;6.80;99.90
8172;DHT22;4127;47.908;10.850;2023-11-21T02:15:34;6.80;99.90
8172;DHT22;4127;47.908;10.850;2023-11-21T02:18:02;6.80;99.90
8172;DHT22;4127;47.908;10.850;2023-11-21T02:20:29;6.80;99.90
8172;DHT22;4127;47.908;10.850;2023-11-21T02:22:57;6.80;99.90
8172;DHT22;4127;47.908;10.850;2023-11-21T02:25:31;6.80;99.90
8172;DHT22;4127;47.908;10.850;2023-11-21T02:28:03;6.80;99.90
8172;DHT22;4127;47.908;10.850;2023-11-21T02:30:30;6.80;99.90
8172;DHT22;4127;47.908;10.850;2023-11-21T02:33:01;6.80;99.90
8172;DHT22;4127;47.908;10.850;2023-11-21T02:35:29;6.70;99.90
8172;DHT22;4127;47.908;10.850;2023-11-21T02:37:58;6.70;99.90
8172;DHT22;4127;47.908;10.850;2023-11-21T02:40:25;6.70;99.90
8172;DHT22;4127;47.908;10.850;2023-11-21T02:42:54;6.70;99.90
8172;DHT22;4127;47.908;10.850;2023-11-21T02:45:21;6.70;99.90
8172;DHT22;4127;47.908;10.850;2023-11-21T02:47:49;6.70;99.90
8172;DHT22;4127;47.908;10.850;2023-11-21T02:50:16;6.70;99.90
8172;DHT22;4127;47.908;10.850;2023-11-21T02:52:47;6.70;99.90
8172;DHT22;4127;47.908;10.850;2023-11-21T02:55:14;6.80;99.90
8172;DHT22;4127;47.908;10.850;2023-11-21T02:57:41;6.80;99.90
8172;DHT22;4127;47.908;10.850;2023-11-21T03:00:08;6.80;99.90
8172;DHT22;4127;47.908;10.850;2023-11-21T03:02:36;6.80;99.90
8172;DHT22;4127;47.908;10.850;2023-11-21T03:05:07;6.80;99.90
8172;DHT22;4127;47.908;10.850;2023-11-21T03:07:39;6.80;99.90
8172;DHT22;4127;47.908;10.850;2023-11-21T03:10:08;6.90;99.90
8172;DHT22;4127;47.908;10.850;2023-11-21T03:12:37;6.80;99.90
8172;DHT22;4127;47.908;10.850;2023-11-21T03:15:06;6.70;99.90
8172;DHT22;4127;47.908;10.850;2023-11-21T03:17:33;6.80;99.90
8172;DHT22;4127;47.908;10.850;2023-11-21T03:20:04;6.80;99.90
8172;DHT22;4127;47.908;10.850;2023-11-21T03:22:31;6.80;99.90
8172;DHT22;4127;47.908;10.850;2023-11-21T03:24:58;6.80;99.90
8172;DHT22;4127;47.908;10.850;2023-11-21T03:27:25;6.80;99.90
8172;DHT22;4127;47.908;10.850;2023-11-21T03:29:52;6.80;99.90
8172;DHT22;4127;47.908;10.850;2023-11-21T03:32:21;6.90;99.90
8172;DHT22;4127;47.908;10.850;2023-11-21T03:34:55;6.80;99.90
8172;DHT22;4127;47.908;10.850;2023-11-21T03:37:26;6.80;99.90
8172;DHT22;4127;47.908;10.850;2023-11-21T03:39:55;6.60;99.90
8172;DHT22;4127;47.908;10.850;2023-11-21T03:42:24;6.60;99.90
8172;DHT22;4127;47.908;10.850;2023-11-21T03:44:54;6.70;99.90
8172;DHT22;4127;47.908;10.850;2023-11-21T03:47:21;6.70;99.90
8172;DHT22;4127;47.908;10.850;2023-11-21T03:49:48;6.70;99.90
8172;DHT22;4127;47.908;10.850;2023-11-21T03:52:15;6.70;99.90
8172;DHT22;4127;47.908;10.850;2023-11-21T03:54:42;6.70;99.90
8172;DHT22;4127;47.908;10.850;2023-11-21T03:57:10;6.50;99.90
8172;DHT22;4127;47.908;10.850;2023-11-21T03:59:40;6.50;99.90
8172;DHT22;4127;47.908;10.850;2023-11-21T04:02:08;6.60;99.90
8172;DHT22;4127;47.908;10.850;2023-11-21T04:04:35;6.50;99.90
8172;DHT22;4127;47.908;10.850;2023-11-21T04:07:03;6.50;99.90
8172;DHT22;4127;47.908;10.850;2023-11-21T04:09:30;6.40;99.90
8172;DHT22;4127;47.908;10.850;2023-11-21T04:11:57;6.40;99.90
8172;DHT22;4127;47.908;10.850;2023-11-21T04:14:24;6.40;99.90
8172;DHT22;4127;47.908;10.850;2023-11-21T04:16:51;6.20;99.90
8172;DHT22;4127;47.908;10.850;2023-11-21T04:19:18;6.30;99.90
8172;DHT22;4127;47.908;10.850;2023-11-21T04:21:45;6.30;99.90
8172;DHT22;4127;47.908;10.850;2023-11-21T04:24:12;6.20;99.90
8172;DHT22;4127;47.908;10.850;2023-11-21T04:26:39;6.20;99.90
8172;DHT22;4127;47.908;10.850;2023-11-21T04:29:06;6.20;99.90
8172;DHT22;4127;47.908;10.850;2023-11-21T04:31:33;6.20;99.90
8172;DHT22;4127;47.908;10.850;2023-11-21T04:34:00;6.10;99.90
8172;DHT22;4127;47.908;10.850;2023-11-21T04:36:28;6.20;99.90
8172;DHT22;4127;47.908;10.850;2023-11-21T04:38:57;6.20;99.90
8172;DHT22;4127;47.908;10.850;2023-11-21T04:41:24;6.20;99.90
8172;DHT22;4127;47.908;10.850;2023-11-21T04:43:51;6.20;99.90
8172;DHT22;4127;47.908;10.850;2023-11-21T04:46:18;6.20;99.90
8172;DHT22;4127;47.908;10.850;2023-11-21T04:48:45;6.20;99.90
8172;DHT22;4127;47.908;10.850;2023-11-21T04:51:12;6.20;99.90
8172;DHT22;4127;47.908;10.850;2023-11-21T04:53:39;6.20;99.90
8172;DHT22;4127;47.908;10.850;2023-11-21T04:56:06;6.20;99.90
8172;DHT22;4127;47.908;10.850;2023-11-21T04:58:33;6.20;99.90
8172;DHT22;4127;47.908;10.850;2023-11-21T05:01:00;6.20;99.90
8172;DHT22;4127;47.908;10.850;2023-11-21T05:03:27;6.20;99.90
8172;DHT22;4127;47.908;10.850;2023-11-21T05:05:56;6.30;99.90
8172;DHT22;4127;47.908;10.850;2023-11-21T05:08:24;6.30;99.90
8172;DHT22;4127;47.908;10.850;2023-11-21T05:10:50;6.10;99.90
8172;DHT22;4127;47.908;10.850;2023-11-21T05:13:19;6.20;99.90
8172;DHT22;4127;47.908;10.850;2023-11-21T05:15:46;6.20;99.90
8172;DHT22;4127;47.908;10.850;2023-11-21T05:18:13;6.20;99.90
8172;DHT22;4127;47.908;10.850;2023-11-21T05:20:40;6.20;99.90
8172;DHT22;4127;47.908;10.850;2023-11-21T05:23:07;6.20;99.90
8172;DHT22;4127;47.908;10.850;2023-11-21T05:25:34;6.20;99.90
8172;DHT22;4127;47.908;10.850;2023-11-21T05:28:06;6.10;99.90
8172;DHT22;4127;47.908;10.850;2023-11-21T05:30:33;6.10;99.90
8172;DHT22;4127;47.908;10.850;2023-11-21T05:33:00;6.00;99.90
8172;DHT22;4127;47.908;10.850;2023-11-21T05:35:27;6.00;99.90
8172;DHT22;4127;47.908;10.850;2023-11-21T05:37:54;6.00;99.90
8172;DHT22;4127;47.908;10.850;2023-11-21T05:40:21;6.00;99.90
8172;DHT22;4127;47.908;10.850;2023-11-21T05:42:51;5.90;99.90
8172;DHT22;4127;47.908;10.850;2023-11-21T05:45:18;5.90;99.90
8172;DHT22;4127;47.908;10.850;2023-11-21T05:47:46;5.80;99.90
8172;DHT22;4127;47.908;10.850;2023-11-21T05:50:15;5.80;99.90
8172;DHT22;4127;47.908;10.850;2023-11-21T05:52:43;5.80;99.90
8172;DHT22;4127;47.908;10.850;2023-11-21T05:55:10;5.80;99.90
8172;DHT22;4127;47.908;10.850;2023-11-21T05:57:39;5.80;99.90
8172;DHT22;4127;47.908;10.850;2023-11-21T06:00:11;5.80;99.90
8172;DHT22;4127;47.908;10.850;2023-11-21T06:02:41;5.80;99.90
8172;DHT22;4127;47.908;10.850;2023-11-21T06:05:09;5.70;99.90
8172;DHT22;4127;47.908;10.850;2023-11-21T06:07:37;5.60;99.90
8172;DHT22;4127;47.908;10.850;2023-11-21T06:10:05;5.70;99.90
8172;DHT22;4127;47.908;10.850;2023-11-21T06:12:34;5.60;99.90
8172;DHT22;4127;47.908;10.850;2023-11-21T06:15:06;5.60;99.90
8172;DHT22;4127;47.908;10.850;2023-11-21T06:17:38;5.60;99.90
8172;DHT22;4127;47.908;10.850;2023-11-21T06:20:08;5.50;99.90
8172;DHT22;4127;47.908;10.850;2023-11-21T06:22:42;5.60;99.90
8172;DHT22;4127;47.908;10.850;2023-11-21T06:25:11;5.50;99.90
8172;DHT22;4127;47.908;10.850;2023-11-21T06:27:44;5.60;99.90
8172;DHT22;4127;47.908;10.850;2023-11-21T06:30:17;5.60;99.90
8172;DHT22;4127;47.908;10.850;2023-11-21T06:32:46;5.60;99.90
8172;DHT22;4127;47.908;10.850;2023-11-21T06:35:14;5.70;99.90
8172;DHT22;4127;47.908;10.850;2023-11-21T06:37:43;5.70;99.90
8172;DHT22;4127;47.908;10.850;2023-11-21T06:40:16;5.60;99.90
8172;DHT22;4127;47.908;10.850;2023-11-21T06:42:45;5.70;99.90
8172;DHT22;4127;47.908;10.850;2023-11-21T06:45:14;5.60;99.90
8172;DHT22;4127;47.908;10.850;2023-11-21T06:47:41;5.70;99.90
8172;DHT22;4127;47.908;10.850;2023-11-21T06:50:09;5.60;99.90
8172;DHT22;4127;47.908;10.850;2023-11-21T06:52:36;5.60;99.90
8172;DHT22;4127;47.908;10.850;2023-11-21T06:55:03;5.60;99.90
8172;DHT22;4127;47.908;10.850;2023-11-21T06:57:31;5.60;99.90
8172;DHT22;4127;47.908;10.850;2023-11-21T06:59:58;5.70;99.90
8172;DHT22;4127;47.908;10.850;2023-11-21T07:02:25;5.60;99.90
8172;DHT22;4127;47.908;10.850;2023-11-21T07:04:52;5.70;99.90
8172;DHT22;4127;47.908;10.850;2023-11-21T07:07:19;5.70;99.90
8172;DHT22;4127;47.908;10.850;2023-11-21T07:09:46;5.80;99.90
8172;DHT22;4127;47.908;10.850;2023-11-21T07:12:14;5.70;99.90
8172;DHT22;4127;47.908;10.850;2023-11-21T07:14:41;5.70;99.90
8172;DHT22;4127;47.908;10.850;2023-11-21T07:17:11;5.70;99.90
8172;DHT22;4127;47.908;10.850;2023-11-21T07:19:39;5.70;99.90
8172;DHT22;4127;47.908;10.850;2023-11-21T07:22:07;5.70;99.90
8172;DHT22;4127;47.908;10.850;2023-11-21T07:24:37;5.80;99.90
8172;DHT22;4127;47.908;10.850;2023-11-21T07:27:06;5.80;99.90
8172;DHT22;4127;47.908;10.850;2023-11-21T07:29:37;5.80;99.90
8172;DHT22;4127;47.908;10.850;2023-11-21T07:32:06;5.80;99.90
8172;DHT22;4127;47.908;10.850;2023-11-21T07:34:33;5.90;99.90
8172;DHT22;4127;47.908;10.850;2023-11-21T07:37:00;5.90;99.90
8172;DHT22;4127;47.908;10.850;2023-11-21T07:39:27;6.00;99.90
8172;DHT22;4127;47.908;10.850;2023-11-21T07:41:54;5.90;99.90
8172;DHT22;4127;47.908;10.850;2023-11-21T07:44:21;5.90;99.90
8172;DHT22;4127;47.908;10.850;2023-11-21T07:46:48;5.90;99.90
8172;DHT22;4127;47.908;10.850;2023-11-21T07:49:17;5.80;99.90
8172;DHT22;4127;47.908;10.850;2023-11-21T07:51:49;5.80;99.90
8172;DHT22;4127;47.908;10.850;2023-11-21T07:54:16;5.90;99.90
8172;DHT22;4127;47.908;10.850;2023-11-21T07:56:43;5.90;99.90
8172;DHT22;4127;47.908;10.850;2023-11-21T07:59:10;5.90;99.90
8172;DHT22;4127;47.908;10.850;2023-11-21T08:01:37;5.90;99.90
8172;DHT22;4127;47.908;10.850;2023-11-21T08:04:04;5.90;99.90
8172;DHT22;4127;47.908;10.850;2023-11-21T08:06:33;5.90;99.90
8172;DHT22;4127;47.908;10.850;2023-11-21T08:09:00;5.90;99.90
8172;DHT22;4127;47.908;10.850;2023-11-21T08:11:27;5.80;99.90
8172;DHT22;4127;47.908;10.850;2023-11-21T08:13:56;6.00;99.90
8172;DHT22;4127;47.908;10.850;2023-11-21T08:16:23;6.00;99.90
8172;DHT22;4127;47.908;10.850;2023-11-21T08:18:51;6.00;99.90
8172;DHT22;4127;47.908;10.850;2023-11-21T08:21:18;6.20;99.90
8172;DHT22;4127;47.908;10.850;2023-11-21T08:23:46;6.20;99.90
8172;DHT22;4127;47.908;10.850;2023-11-21T08:26:16;6.20;99.90
8172;DHT22;4127;47.908;10.850;2023-11-21T08:28:45;6.20;99.90
8172;DHT22;4127;47.908;10.850;2023-11-21T08:31:12;6.30;99.90
8172;DHT22;4127;47.908;10.850;2023-11-21T08:33:41;6.30;99.90
8172;DHT22;4127;47.908;10.850;2023-11-21T08:36:09;6.30;99.90
8172;DHT22;4127;47.908;10.850;2023-11-21T08:38:37;6.20;99.90
8172;DHT22;4127;47.908;10.850;2023-11-21T08:41:07;6.20;99.90
8172;DHT22;4127;47.908;10.850;2023-11-21T08:43:37;6.40;99.90
8172;DHT22;4127;47.908;10.850;2023-11-21T08:46:07;6.40;99.90
8172;DHT22;4127;47.908;10.850;2023-11-21T08:48:37;6.40;99.90
8172;DHT22;4127;47.908;10.850;2023-11-21T08:51:04;6.40;99.90
8172;DHT22;4127;47.908;10.850;2023-11-21T08:53:31;6.50;99.90
8172;DHT22;4127;47.908;10.850;2023-11-21T08:55:58;6.40;99.90
8172;DHT22;4127;47.908;10.850;2023-11-21T08:58:25;6.60;99.90
8172;DHT22;4127;47.908;10.850;2023-11-21T09:00:52;6.70;99.90
8172;DHT22;4127;47.908;10.850;2023-11-21T09:03:21;6.70;99.90
8172;DHT22;4127;47.908;10.850;2023-11-21T09:05:48;6.80;99.90
8172;DHT22;4127;47.908;10.850;2023-11-21T09:08:15;6.80;99.90
8172;DHT22;4127;47.908;10.850;2023-11-21T09:10:43;6.90;99.90
8172;DHT22;4127;47.908;10.850;2023-11-21T09:13:12;6.90;99.90
8172;DHT22;4127;47.908;10.850;2023-11-21T09:15:39;7.00;99.90
8172;DHT22;4127;47.908;10.850;2023-11-21T09:18:06;7.00;99.90
8172;DHT22;4127;47.908;10.850;2023-11-21T09:20:33;7.10;99.90
8172;DHT22;4127;47.908;10.850;2023-11-21T09:23:00;7.00;99.90
8172;DHT22;4127;47.908;10.850;2023-11-21T09:25:27;7.00;99.90
8172;DHT22;4127;47.908;10.850;2023-11-21T09:27:55;7.10;99.90
8172;DHT22;4127;47.908;10.850;2023-11-21T09:30:24;7.00;99.90
8172;DHT22;4127;47.908;10.850;2023-11-21T09:32:51;7.00;99.90
8172;DHT22;4127;47.908;10.850;2023-11-21T09:35:18;7.10;99.90
8172;DHT22;4127;47.908;10.850;2023-11-21T09:37:45;7.10;99.90
8172;DHT22;4127;47.908;10.850;2023-11-21T09:40:21;7.30;99.90
8172;DHT22;4127;47.908;10.850;2023-11-21T09:42:56;7.30;99.90
8172;DHT22;4127;47.908;10.850;2023-11-21T09:45:28;7.50;99.90
8172;DHT22;4127;47.908;10.850;2023-11-21T09:47:56;7.60;99.90
8172;DHT22;4127;47.908;10.850;2023-11-21T09:50:24;7.50;99.90
8172;DHT22;4127;47.908;10.850;2023-11-21T09:53:18;7.60;99.90
8172;DHT22;4127;47.908;10.850;2023-11-21T09:55:50;7.70;99.90
8172;DHT22;4127;47.908;10.850;2023-11-21T09:58:18;7.70;99.90
8172;DHT22;4127;47.908;10.850;2023-11-21T10:00:50;7.70;99.90
8172;DHT22;4127;47.908;10.850;2023-11-21T10:03:19;7.80;99.90
8172;DHT22;4127;47.908;10.850;2023-11-21T10:05:48;7.90;99.90
8172;DHT22;4127;47.908;10.850;2023-11-21T10:08:17;7.90;99.90
8172;DHT22;4127;47.908;10.850;2023-11-21T10:10:49;8.00;99.90
8172;DHT22;4127;47.908;10.850;2023-11-21T10:13:18;7.90;99.90
8172;DHT22;4127;47.908;10.850;2023-11-21T10:15:51;8.00;99.90
8172;DHT22;4127;47.908;10.850;2023-11-21T10:18:20;8.20;99.90
8172;DHT22;4127;47.908;10.850;2023-11-21T10:20:49;8.20;99.90
8172;DHT22;4127;47.908;10.850;2023-11-21T10:23:21;8.40;99.90
8172;DHT22;4127;47.908;10.850;2023-11-21T10:25:51;8.20;99.90
8172;DHT22;4127;47.908;10.850;2023-11-21T10:28:19;8.20;99.90
8172;DHT22;4127;47.908;10.850;2023-11-21T10:30:48;8.10;99.90
8172;DHT22;4127;47.908;10.850;2023-11-21T10:33:15;8.00;99.90
8172;DHT22;4127;47.908;10.850;2023-11-21T10:35:48;8.20;99.90
8172;DHT22;4127;47.908;10.850;2023-11-21T10:38:21;8.10;99.90
8172;DHT22;4127;47.908;10.850;2023-11-21T10:40:50;8.10;99.90
8172;DHT22;4127;47.908;10.850;2023-11-21T10:43:18;8.10;99.90
8172;DHT22;4127;47.908;10.850;2023-11-21T10:45:46;8.10;99.90
8172;DHT22;4127;47.908;10.850;2023-11-21T10:48:14;8.20;99.90
8172;DHT22;4127;47.908;10.850;2023-11-21T10:50:46;8.30;99.90
8172;DHT22;4127;47.908;10.850;2023-11-21T10:53:13;8.40;99.90
8172;DHT22;4127;47.908;10.850;2023-11-21T10:55:40;8.40;99.90
8172;DHT22;4127;47.908;10.850;2023-11-21T10:58:08;8.30;99.90
8172;DHT22;4127;47.908;10.850;2023-11-21T11:00:38;8.30;99.90
8172;DHT22;4127;47.908;10.850;2023-11-21T11:03:07;8.30;99.90
8172;DHT22;4127;47.908;10.850;2023-11-21T11:05:44;8.40;99.90
8172;DHT22;4127;47.908;10.850;2023-11-21T11:08:21;8.50;99.90
8172;DHT22;4127;47.908;10.850;2023-11-21T11:10:54;8.50;99.90
8172;DHT22;4127;47.908;10.850;2023-11-21T11:13:21;8.50;99.90
8172;DHT22;4127;47.908;10.850;2023-11-21T11:15:50;8.50;99.90
8172;DHT22;4127;47.908;10.850;2023-11-21T11:18:18;8.50;99.90
8172;DHT22;4127;47.908;10.850;2023-11-21T11:20:49;8.50;99.90
8172;DHT22;4127;47.908;10.850;2023-11-21T11:23:49;8.40;99.90
8172;DHT22;4127;47.908;10.850;2023-11-21T11:26:42;8.40;99.90
8172;DHT22;4127;47.908;10.850;2023-11-21T11:29:39;8.50;99.90
8172;DHT22;4127;47.908;10.850;2023-11-21T11:34:59;8.40;99.90
8172;DHT22;4127;47.908;10.850;2023-11-21T11:37:28;8.40;99.90
8172;DHT22;4127;47.908;10.850;2023-11-21T11:39:56;8.40;99.90
8172;DHT22;4127;47.908;10.850;2023-11-21T11:42:27;8.40;99.90
8172;DHT22;4127;47.908;10.850;2023-11-21T11:44:53;8.30;99.90
8172;DHT22;4127;47.908;10.850;2023-11-21T11:50:12;8.40;99.90
8172;DHT22;4127;47.908;10.850;2023-11-21T11:52:48;8.50;99.90
8172;DHT22;4127;47.908;10.850;2023-11-21T11:55:17;8.50;99.90
8172;DHT22;4127;47.908;10.850;2023-11-21T11:57:49;8.40;99.90
8172;DHT22;4127;47.908;10.850;2023-11-21T12:00:20;8.40;99.90
8172;DHT22;4127;47.908;10.850;2023-11-21T12:02:58;8.40;99.90
8172;DHT22;4127;47.908;10.850;2023-11-21T12:05:26;8.40;99.90
8172;DHT22;4127;47.908;10.850;2023-11-21T12:08:01;8.30;99.90
8172;DHT22;4127;47.908;10.850;2023-11-21T12:10:31;8.40;99.90
8172;DHT22;4127;47.908;10.850;2023-11-21T12:13:03;8.40;99.90
8172;DHT22;4127;47.908;10.850;2023-11-21T12:15:31;8.50;99.90
8172;DHT22;4127;47.908;10.850;2023-11-21T12:17:58;8.50;99.90
8172;DHT22;4127;47.908;10.850;2023-11-21T12:20:26;8.40;99.90
8172;DHT22;4127;47.908;10.850;2023-11-21T12:22:55;8.40;99.90
8172;DHT22;4127;47.908;10.850;2023-11-21T12:25:24;8.40;99.90
8172;DHT22;4127;47.908;10.850;2023-11-21T12:27:52;8.40;99.90
8172;DHT22;4127;47.908;10.850;2023-11-21T12:30:23;8.40;99.90
8172;DHT22;4127;47.908;10.850;2023-11-21T12:32:52;8.30;99.90
8172;DHT22;4127;47.908;10.850;2023-11-21T12:35:24;8.20;99.90
8172;DHT22;4127;47.908;10.850;2023-11-21T12:37:52;8.20;99.90
8172;DHT22;4127;47.908;10.850;2023-11-21T12:40:19;8.20;99.90
8172;DHT22;4127;47.908;10.850;2023-11-21T12:42:52;8.10;99.90
8172;DHT22;4127;47.908;10.850;2023-11-21T12:45:25;8.10;99.90
8172;DHT22;4127;47.908;10.850;2023-11-21T12:48:02;8.10;99.90
8172;DHT22;4127;47.908;10.850;2023-11-21T12:50:31;8.10;99.90
8172;DHT22;4127;47.908;10.850;2023-11-21T12:53:08;8.10;99.90
8172;DHT22;4127;47.908;10.850;2023-11-21T12:55:44;8.10;99.90
8172;DHT22;4127;47.908;10.850;2023-11-21T12:58:17;8.20;99.90
8172;DHT22;4127;47.908;10.850;2023-11-21T13:00:48;8.20;99.90
8172;DHT22;4127;47.908;10.850;2023-11-21T13:03:16;8.10;99.90
8172;DHT22;4127;47.908;10.850;2023-11-21T13:05:51;8.20;99.90
8172;DHT22;4127;47.908;10.850;2023-11-21T13:08:20;8.00;99.90
8172;DHT22;4127;47.908;10.850;2023-11-21T13:10:54;8.00;99.90
8172;DHT22;4127;47.908;10.850;2023-11-21T13:13:25;8.00;99.90
8172;DHT22;4127;47.908;10.850;2023-11-21T13:16:04;8.10;99.90
8172;DHT22;4127;47.908;10.850;2023-11-21T13:18:32;8.20;99.90
8172;DHT22;4127;47.908;10.850;2023-11-21T13:21:01;8.30;99.90
8172;DHT22;4127;47.908;10.850;2023-11-21T13:23:34;8.20;99.90
8172;DHT22;4127;47.908;10.850;2023-11-21T13:26:03;8.30;99.90
8172;DHT22;4127;47.908;10.850;2023-11-21T13:28:34;7.70;99.90
8172;DHT22;4127;47.908;10.850;2023-11-21T13:31:02;7.50;99.90
8172;DHT22;4127;47.908;10.850;2023-11-21T13:33:38;7.20;99.90
8172;DHT22;4127;47.908;10.850;2023-11-21T13:36:06;7.20;99.90
8172;DHT22;4127;47.908;10.850;2023-11-21T13:38:37;7.10;99.90
8172;DHT22;4127;47.908;10.850;2023-11-21T13:41:09;6.80;99.90
8172;DHT22;4127;47.908;10.850;2023-11-21T13:43:37;6.80;99.90
8172;DHT22;4127;47.908;10.850;2023-11-21T13:46:05;6.70;99.90
8172;DHT22;4127;47.908;10.850;2023-11-21T13:48:40;6.70;99.90
8172;DHT22;4127;47.908;10.850;2023-11-21T13:51:09;6.70;99.90
8172;DHT22;4127;47.908;10.850;2023-11-21T13:53:48;6.90;99.90
8172;DHT22;4127;47.908;10.850;2023-11-21T13:56:17;7.00;99.90
8172;DHT22;4127;47.908;10.850;2023-11-21T13:58:49;7.10;99.90
8172;DHT22;4127;47.908;10.850;2023-11-21T14:01:22;7.20;99.90
8172;DHT22;4127;47.908;10.850;2023-11-21T14:03:52;7.20;99.90
8172;DHT22;4127;47.908;10.850;2023-11-21T14:06:24;7.20;99.90
8172;DHT22;4127;47.908;10.850;2023-11-21T14:08:57;7.20;99.90
8172;DHT22;4127;47.908;10.850;2023-11-21T14:11:23;7.10;99.90
8172;DHT22;4127;47.908;10.850;2023-11-21T14:13:55;7.30;99.90
8172;DHT22;4127;47.908;10.850;2023-11-21T14:16:23;7.30;99.90
8172;DHT22;4127;47.908;10.850;2023-11-21T14:18:49;7.30;99.90
8172;DHT22;4127;47.908;10.850;2023-11-21T14:21:25;7.30;99.90
8172;DHT22;4127;47.908;10.850;2023-11-21T14:23:52;7.30;99.90
8172;DHT22;4127;47.908;10.850;2023-11-21T14:26:21;7.30;99.90
8172;DHT22;4127;47.908;10.850;2023-11-21T14:28:50;7.20;99.90
8172;DHT22;4127;47.908;10.850;2023-11-21T14:31:18;7.20;99.90
8172;DHT22;4127;47.908;10.850;2023-11-21T14:33:44;7.20;99.90
8172;DHT22;4127;47.908;10.850;2023-11-21T14:36:12;7.30;99.90
8172;DHT22;4127;47.908;10.850;2023-11-21T14:38:39;7.20;99.90
8172;DHT22;4127;47.908;10.850;2023-11-21T14:41:06;7.10;99.90
8172;DHT22;4127;47.908;10.850;2023-11-21T14:43:37;7.10;99.90
8172;DHT22;4127;47.908;10.850;2023-11-21T14:46:05;7.00;99.90
8172;DHT22;4127;47.908;10.850;2023-11-21T14:48:36;7.00;99.90
8172;DHT22;4127;47.908;10.850;2023-11-21T14:51:09;7.00;99.90
8172;DHT22;4127;47.908;10.850;2023-11-21T14:53:39;6.90;99.90
8172;DHT22;4127;47.908;10.850;2023-11-21T14:56:21;6.90;99.90
8172;DHT22;4127;47.908;10.850;2023-11-21T14:58:54;6.90;99.90
8172;DHT22;4127;47.908;10.850;2023-11-21T15:01:23;6.80;99.90
8172;DHT22;4127;47.908;10.850;2023-11-21T15:04:09;6.70;99.90
8172;DHT22;4127;47.908;10.850;2023-11-21T15:06:52;6.70;99.90
8172;DHT22;4127;47.908;10.850;2023-11-21T15:09:20;6.90;99.90
8172;DHT22;4127;47.908;10.850;2023-11-21T15:11:47;6.90;99.90
8172;DHT22;4127;47.908;10.850;2023-11-21T15:14:14;6.90;99.90
8172;DHT22;4127;47.908;10.850;2023-11-21T15:16:47;6.90;99.90
8172;DHT22;4127;47.908;10.850;2023-11-21T15:19:18;7.10;99.90
8172;DHT22;4127;47.908;10.850;2023-11-21T15:21:51;7.10;99.90
8172;DHT22;4127;47.908;10.850;2023-11-21T15:24:18;7.00;99.90
8172;DHT22;4127;47.908;10.850;2023-11-21T15:26:44;7.00;99.90
8172;DHT22;4127;47.908;10.850;2023-11-21T15:29:11;6.90;99.90
8172;DHT22;4127;47.908;10.850;2023-11-21T15:31:39;6.80;99.90
8172;DHT22;4127;47.908;10.850;2023-11-21T15:34:10;6.70;99.90
8172;DHT22;4127;47.908;10.850;2023-11-21T15:36:37;6.70;99.90
8172;DHT22;4127;47.908;10.850;2023-11-21T15:39:04;6.60;99.90
8172;DHT22;4127;47.908;10.850;2023-11-21T15:41:31;6.60;99.90
8172;DHT22;4127;47.908;10.850;2023-11-21T15:43:58;6.70;99.90
8172;DHT22;4127;47.908;10.850;2023-11-21T15:46:25;6.60;99.90
8172;DHT22;4127;47.908;10.850;2023-11-21T15:48:52;6.50;99.90
8172;DHT22;4127;47.908;10.850;2023-11-21T15:51:21;6.50;99.90
8172;DHT22;4127;47.908;10.850;2023-11-21T15:53:48;6.40;99.90
8172;DHT22;4127;47.908;10.850;2023-11-21T15:56:15;6.40;99.90
8172;DHT22;4127;47.908;10.850;2023-11-21T15:58:44;6.40;99.90
8172;DHT22;4127;47.908;10.850;2023-11-21T16:01:16;6.40;99.90
8172;DHT22;4127;47.908;10.850;2023-11-21T16:03:43;6.50;99.90
8172;DHT22;4127;47.908;10.850;2023-11-21T16:06:15;6.50;99.90
8172;DHT22;4127;47.908;10.850;2023-11-21T16:08:42;6.40;99.90
8172;DHT22;4127;47.908;10.850;2023-11-21T16:11:09;6.30;99.90
8172;DHT22;4127;47.908;10.850;2023-11-21T16:13:36;6.30;99.90
8172;DHT22;4127;47.908;10.850;2023-11-21T16:16:05;6.40;99.90
8172;DHT22;4127;47.908;10.850;2023-11-21T16:18:32;6.40;99.90